sensor_id;sensor_type;location;lat;lon;timestamp;P1;durP1;ratioP1;P2;durP2;ratioP2
48871;SDS011;36154;51.674;7.824;2022-08-30T00:00:04;0.40;;;0.40;;
48871;SDS011;36154;51.674;7.824;2022-08-30T00:02:50;0.60;;;0.50;;
48871;SDS011;36154;51.674;7.824;2022-08-30T00:05:16;0.55;;;0.40;;
48871;SDS011;36154;51.674;7.824;2022-08-30T00:07:41;0.80;;;0.30;;
48871;SDS011;36154;51.674;7.824;2022-08-30T00:10:06;0.63;;;0.52;;
48871;SDS011;36154;51.674;7.824;2022-08-30T00:12:32;0.90;;;0.70;;
48871;SDS011;36154;51.674;7.824;2022-08-30T00:14:57;1.08;;;0.40;;
48871;SDS011;36154;51.674;7.824;2022-08-30T00:17:23;0.40;;;0.30;;
48871;SDS011;36154;51.674;7.824;2022-08-30T00:19:48;0.40;;;0.40;;
48871;SDS011;36154;51.674;7.824;2022-08-30T00:22:14;1.67;;;0.40;;
48871;SDS011;36154;51.674;7.824;2022-08-30T00:24:39;0.60;;;0.50;;
48871;SDS011;36154;51.674;7.824;2022-08-30T00:27:05;0.95;;;0.38;;
48871;SDS011;36154;51.674;7.824;2022-08-30T00:29:30;0.30;;;0.30;;
48871;SDS011;36154;51.674;7.824;2022-08-30T00:31:55;0.30;;;0.30;;
48871;SDS011;36154;51.674;7.824;2022-08-30T00:34:20;1.60;;;0.30;;
48871;SDS011;36154;51.674;7.824;2022-08-30T00:36:46;0.40;;;0.40;;
48871;SDS011;36154;51.674;7.824;2022-08-30T00:39:11;0.70;;;0.50;;
48871;SDS011;36154;51.674;7.824;2022-08-30T00:41:36;0.40;;;0.40;;
48871;SDS011;36154;51.674;7.824;2022-08-30T00:44:02;0.47;;;0.43;;
48871;SDS011;36154;51.674;7.824;2022-08-30T00:46:28;1.75;;;0.40;;
48871;SDS011;36154;51.674;7.824;2022-08-30T00:48:53;0.47;;;0.47;;
48871;SDS011;36154;51.674;7.824;2022-08-30T00:51:20;0.50;;;0.50;;
48871;SDS011;36154;51.674;7.824;2022-08-30T00:53:48;0.85;;;0.38;;
48871;SDS011;36154;51.674;7.824;2022-08-30T00:56:17;0.30;;;0.30;;
48871;SDS011;36154;51.674;7.824;2022-08-30T00:58:44;1.75;;;0.40;;
48871;SDS011;36154;51.674;7.824;2022-08-30T01:01:12;3.45;;;0.50;;
48871;SDS011;36154;51.674;7.824;2022-08-30T01:03:39;0.50;;;0.50;;
48871;SDS011;36154;51.674;7.824;2022-08-30T01:06:05;0.40;;;0.40;;
48871;SDS011;36154;51.674;7.824;2022-08-30T01:08:31;0.40;;;0.30;;
48871;SDS011;36154;51.674;7.824;2022-08-30T01:10:57;0.40;;;0.40;;
48871;SDS011;36154;51.674;7.824;2022-08-30T01:13:24;0.73;;;0.47;;
48871;SDS011;36154;51.674;7.824;2022-08-30T01:15:50;2.72;;;0.40;;
48871;SDS011;36154;51.674;7.824;2022-08-30T01:18:17;2.47;;;0.40;;
48871;SDS011;36154;51.674;7.824;2022-08-30T01:20:47;0.85;;;0.32;;
48871;SDS011;36154;51.674;7.824;2022-08-30T01:23:17;0.80;;;0.50;;
48871;SDS011;36154;51.674;7.824;2022-08-30T01:25:46;1.15;;;0.45;;
48871;SDS011;36154;51.674;7.824;2022-08-30T01:28:15;0.73;;;0.38;;
48871;SDS011;36154;51.674;7.824;2022-08-30T01:30:44;1.55;;;0.45;;
48871;SDS011;36154;51.674;7.824;2022-08-30T01:33:10;0.57;;;0.40;;
48871;SDS011;36154;51.674;7.824;2022-08-30T01:38:13;0.40;;;0.40;;
48871;SDS011;36154;51.674;7.824;2022-08-30T01:40:41;0.50;;;0.50;;
48871;SDS011;36154;51.674;7.824;2022-08-30T01:43:07;0.95;;;0.40;;
48871;SDS011;36154;51.674;7.824;2022-08-30T01:45:34;0.40;;;0.40;;
48871;SDS011;36154;51.674;7.824;2022-08-30T01:47:59;0.38;;;0.38;;
48871;SDS011;36154;51.674;7.824;2022-08-30T01:50:24;3.38;;;0.50;;
48871;SDS011;36154;51.674;7.824;2022-08-30T01:52:49;1.50;;;0.40;;
48871;SDS011;36154;51.674;7.824;2022-08-30T01:55:15;0.40;;;0.40;;
48871;SDS011;36154;51.674;7.824;2022-08-30T01:57:40;4.72;;;0.52;;
48871;SDS011;36154;51.674;7.824;2022-08-30T02:00:06;1.10;;;0.40;;
48871;SDS011;36154;51.674;7.824;2022-08-30T02:02:33;1.38;;;0.52;;
48871;SDS011;36154;51.674;7.824;2022-08-30T02:04:59;1.73;;;0.50;;
48871;SDS011;36154;51.674;7.824;2022-08-30T02:07:24;0.40;;;0.35;;
48871;SDS011;36154;51.674;7.824;2022-08-30T02:09:50;0.65;;;0.40;;
48871;SDS011;36154;51.674;7.824;2022-08-30T02:12:16;1.23;;;0.40;;
48871;SDS011;36154;51.674;7.824;2022-08-30T02:14:42;1.70;;;0.45;;
48871;SDS011;36154;51.674;7.824;2022-08-30T02:17:09;0.40;;;0.40;;
48871;SDS011;36154;51.674;7.824;2022-08-30T02:19:36;0.47;;;0.47;;
48871;SDS011;36154;51.674;7.824;2022-08-30T02:22:02;0.50;;;0.50;;
48871;SDS011;36154;51.674;7.824;2022-08-30T02:24:28;0.52;;;0.40;;
48871;SDS011;36154;51.674;7.824;2022-08-30T02:26:53;1.45;;;0.50;;
48871;SDS011;36154;51.674;7.824;2022-08-30T02:29:19;0.52;;;0.50;;
48871;SDS011;36154;51.674;7.824;2022-08-30T02:31:46;0.70;;;0.60;;
48871;SDS011;36154;51.674;7.824;2022-08-30T02:34:11;0.50;;;0.47;;
48871;SDS011;36154;51.674;7.824;2022-08-30T02:36:37;1.15;;;0.50;;
48871;SDS011;36154;51.674;7.824;2022-08-30T02:39:04;0.38;;;0.38;;
48871;SDS011;36154;51.674;7.824;2022-08-30T02:41:30;1.35;;;0.52;;
48871;SDS011;36154;51.674;7.824;2022-08-30T02:43:55;0.70;;;0.70;;
48871;SDS011;36154;51.674;7.824;2022-08-30T02:46:23;0.50;;;0.50;;
48871;SDS011;36154;51.674;7.824;2022-08-30T02:48:48;0.40;;;0.40;;
48871;SDS011;36154;51.674;7.824;2022-08-30T02:51:14;0.95;;;0.52;;
48871;SDS011;36154;51.674;7.824;2022-08-30T02:53:40;0.50;;;0.40;;
48871;SDS011;36154;51.674;7.824;2022-08-30T02:56:07;0.40;;;0.40;;
48871;SDS011;36154;51.674;7.824;2022-08-30T02:58:33;1.27;;;0.55;;
48871;SDS011;36154;51.674;7.824;2022-08-30T03:00:58;0.60;;;0.40;;
48871;SDS011;36154;51.674;7.824;2022-08-30T03:03:23;0.50;;;0.50;;
48871;SDS011;36154;51.674;7.824;2022-08-30T03:05:49;0.50;;;0.45;;
48871;SDS011;36154;51.674;7.824;2022-08-30T03:08:14;1.60;;;0.82;;
48871;SDS011;36154;51.674;7.824;2022-08-30T03:10:40;0.88;;;0.88;;
48871;SDS011;36154;51.674;7.824;2022-08-30T03:13:05;0.82;;;0.63;;
48871;SDS011;36154;51.674;7.824;2022-08-30T03:15:34;0.50;;;0.47;;
48871;SDS011;36154;51.674;7.824;2022-08-30T03:18:01;0.50;;;0.50;;
48871;SDS011;36154;51.674;7.824;2022-08-30T03:20:26;0.70;;;0.60;;
48871;SDS011;36154;51.674;7.824;2022-08-30T03:22:52;0.50;;;0.40;;
48871;SDS011;36154;51.674;7.824;2022-08-30T03:25:18;1.52;;;0.60;;
48871;SDS011;36154;51.674;7.824;2022-08-30T03:27:46;1.05;;;0.80;;
48871;SDS011;36154;51.674;7.824;2022-08-30T03:30:14;2.00;;;0.65;;
48871;SDS011;36154;51.674;7.824;2022-08-30T03:32:41;0.80;;;0.80;;
48871;SDS011;36154;51.674;7.824;2022-08-30T03:35:07;1.35;;;0.65;;
48871;SDS011;36154;51.674;7.824;2022-08-30T03:37:32;1.35;;;0.80;;
48871;SDS011;36154;51.674;7.824;2022-08-30T03:39:58;2.03;;;0.80;;
48871;SDS011;36154;51.674;7.824;2022-08-30T03:42:23;0.85;;;0.80;;
48871;SDS011;36154;51.674;7.824;2022-08-30T03:44:49;0.75;;;0.75;;
48871;SDS011;36154;51.674;7.824;2022-08-30T03:47:14;0.90;;;0.70;;
48871;SDS011;36154;51.674;7.824;2022-08-30T03:49:40;1.75;;;1.00;;
48871;SDS011;36154;51.674;7.824;2022-08-30T03:52:06;0.73;;;0.73;;
48871;SDS011;36154;51.674;7.824;2022-08-30T03:54:31;1.58;;;0.93;;
48871;SDS011;36154;51.674;7.824;2022-08-30T03:56:56;1.10;;;0.80;;
48871;SDS011;36154;51.674;7.824;2022-08-30T03:59:22;1.50;;;0.80;;
48871;SDS011;36154;51.674;7.824;2022-08-30T04:01:47;1.52;;;0.60;;
48871;SDS011;36154;51.674;7.824;2022-08-30T04:04:13;1.27;;;0.88;;
48871;SDS011;36154;51.674;7.824;2022-08-30T04:06:39;0.82;;;0.65;;
48871;SDS011;36154;51.674;7.824;2022-08-30T04:09:04;1.70;;;0.63;;
48871;SDS011;36154;51.674;7.824;2022-08-30T04:11:30;1.75;;;0.85;;
48871;SDS011;36154;51.674;7.824;2022-08-30T04:13:55;1.73;;;0.65;;
48871;SDS011;36154;51.674;7.824;2022-08-30T04:16:20;1.20;;;0.90;;
48871;SDS011;36154;51.674;7.824;2022-08-30T04:18:46;2.20;;;0.90;;
48871;SDS011;36154;51.674;7.824;2022-08-30T04:21:12;2.40;;;1.00;;
48871;SDS011;36154;51.674;7.824;2022-08-30T04:23:37;2.60;;;1.13;;
48871;SDS011;36154;51.674;7.824;2022-08-30T04:26:03;2.83;;;0.90;;
48871;SDS011;36154;51.674;7.824;2022-08-30T04:28:28;1.70;;;0.93;;
48871;SDS011;36154;51.674;7.824;2022-08-30T04:30:53;1.55;;;0.90;;
48871;SDS011;36154;51.674;7.824;2022-08-30T04:33:19;1.17;;;0.80;;
48871;SDS011;36154;51.674;7.824;2022-08-30T04:35:46;0.90;;;0.90;;
48871;SDS011;36154;51.674;7.824;2022-08-30T04:38:13;1.00;;;0.90;;
48871;SDS011;36154;51.674;7.824;2022-08-30T04:40:40;1.83;;;0.90;;
48871;SDS011;36154;51.674;7.824;2022-08-30T04:43:06;5.40;;;0.95;;
48871;SDS011;36154;51.674;7.824;2022-08-30T04:45:32;1.85;;;0.85;;
48871;SDS011;36154;51.674;7.824;2022-08-30T04:47:57;4.63;;;1.33;;
48871;SDS011;36154;51.674;7.824;2022-08-30T04:50:22;2.83;;;1.08;;
48871;SDS011;36154;51.674;7.824;2022-08-30T04:52:48;2.53;;;1.27;;
48871;SDS011;36154;51.674;7.824;2022-08-30T04:55:13;2.42;;;0.93;;
48871;SDS011;36154;51.674;7.824;2022-08-30T04:57:39;8.13;;;1.95;;
48871;SDS011;36154;51.674;7.824;2022-08-30T05:00:06;9.60;;;1.95;;
48871;SDS011;36154;51.674;7.824;2022-08-30T05:02:35;4.90;;;1.40;;
48871;SDS011;36154;51.674;7.824;2022-08-30T05:05:00;4.90;;;1.30;;
48871;SDS011;36154;51.674;7.824;2022-08-30T05:07:45;3.13;;;1.20;;
48871;SDS011;36154;51.674;7.824;2022-08-30T05:10:11;1.70;;;1.05;;
48871;SDS011;36154;51.674;7.824;2022-08-30T05:12:36;3.95;;;1.10;;
48871;SDS011;36154;51.674;7.824;2022-08-30T05:15:01;3.30;;;1.60;;
48871;SDS011;36154;51.674;7.824;2022-08-30T05:17:27;6.88;;;1.20;;
48871;SDS011;36154;51.674;7.824;2022-08-30T05:19:53;2.72;;;1.15;;
48871;SDS011;36154;51.674;7.824;2022-08-30T05:22:18;2.47;;;0.80;;
48871;SDS011;36154;51.674;7.824;2022-08-30T05:24:43;2.83;;;1.00;;
48871;SDS011;36154;51.674;7.824;2022-08-30T05:27:08;2.75;;;1.13;;
48871;SDS011;36154;51.674;7.824;2022-08-30T05:29:34;1.42;;;0.80;;
48871;SDS011;36154;51.674;7.824;2022-08-30T05:31:59;3.95;;;1.15;;
48871;SDS011;36154;51.674;7.824;2022-08-30T05:34:25;2.50;;;1.00;;
48871;SDS011;36154;51.674;7.824;2022-08-30T05:36:50;1.85;;;0.95;;
48871;SDS011;36154;51.674;7.824;2022-08-30T05:39:17;3.42;;;0.90;;
48871;SDS011;36154;51.674;7.824;2022-08-30T05:41:42;3.65;;;0.90;;
48871;SDS011;36154;51.674;7.824;2022-08-30T05:44:07;2.87;;;0.90;;
48871;SDS011;36154;51.674;7.824;2022-08-30T05:46:34;2.15;;;1.45;;
48871;SDS011;36154;51.674;7.824;2022-08-30T05:49:01;2.00;;;1.05;;
48871;SDS011;36154;51.674;7.824;2022-08-30T05:51:29;2.20;;;1.23;;
48871;SDS011;36154;51.674;7.824;2022-08-30T05:53:56;1.42;;;1.00;;
48871;SDS011;36154;51.674;7.824;2022-08-30T05:56:24;1.77;;;1.00;;
48871;SDS011;36154;51.674;7.824;2022-08-30T05:58:51;1.60;;;1.15;;
48871;SDS011;36154;51.674;7.824;2022-08-30T06:01:25;2.65;;;1.15;;
48871;SDS011;36154;51.674;7.824;2022-08-30T06:03:53;2.15;;;0.80;;
48871;SDS011;36154;51.674;7.824;2022-08-30T06:06:20;0.95;;;0.88;;
48871;SDS011;36154;51.674;7.824;2022-08-30T06:08:45;1.70;;;1.50;;
48871;SDS011;36154;51.674;7.824;2022-08-30T06:11:13;4.63;;;1.17;;
48871;SDS011;36154;51.674;7.824;2022-08-30T06:13:39;1.27;;;0.90;;
48871;SDS011;36154;51.674;7.824;2022-08-30T06:16:05;1.13;;;1.00;;
48871;SDS011;36154;51.674;7.824;2022-08-30T06:18:31;2.60;;;1.63;;
48871;SDS011;36154;51.674;7.824;2022-08-30T06:20:56;3.70;;;1.20;;
48871;SDS011;36154;51.674;7.824;2022-08-30T06:23:22;1.40;;;1.30;;
48871;SDS011;36154;51.674;7.824;2022-08-30T06:25:47;0.93;;;0.88;;
48871;SDS011;36154;51.674;7.824;2022-08-30T06:28:13;2.20;;;2.00;;
48871;SDS011;36154;51.674;7.824;2022-08-30T06:30:40;2.13;;;1.40;;
48871;SDS011;36154;51.674;7.824;2022-08-30T06:33:06;0.90;;;0.90;;
48871;SDS011;36154;51.674;7.824;2022-08-30T06:35:35;1.20;;;0.90;;
48871;SDS011;36154;51.674;7.824;2022-08-30T06:38:01;2.58;;;1.10;;
48871;SDS011;36154;51.674;7.824;2022-08-30T06:40:27;2.45;;;1.17;;
48871;SDS011;36154;51.674;7.824;2022-08-30T06:42:52;1.02;;;0.95;;
48871;SDS011;36154;51.674;7.824;2022-08-30T06:45:18;7.13;;;1.70;;
48871;SDS011;36154;51.674;7.824;2022-08-30T06:47:44;1.42;;;1.10;;
48871;SDS011;36154;51.674;7.824;2022-08-30T06:50:10;2.35;;;0.80;;
48871;SDS011;36154;51.674;7.824;2022-08-30T06:52:37;2.88;;;0.90;;
48871;SDS011;36154;51.674;7.824;2022-08-30T06:55:04;1.63;;;1.00;;
48871;SDS011;36154;51.674;7.824;2022-08-30T06:57:30;1.20;;;1.05;;
48871;SDS011;36154;51.674;7.824;2022-08-30T06:59:56;3.05;;;0.63;;
48871;SDS011;36154;51.674;7.824;2022-08-30T07:02:22;1.27;;;0.80;;
48871;SDS011;36154;51.674;7.824;2022-08-30T07:04:47;1.23;;;0.80;;
48871;SDS011;36154;51.674;7.824;2022-08-30T07:07:13;3.35;;;0.90;;
48871;SDS011;36154;51.674;7.824;2022-08-30T07:09:39;2.35;;;0.88;;
48871;SDS011;36154;51.674;7.824;2022-08-30T07:12:09;1.92;;;0.80;;
48871;SDS011;36154;51.674;7.824;2022-08-30T07:14:35;0.73;;;0.73;;
48871;SDS011;36154;51.674;7.824;2022-08-30T07:17:01;1.58;;;1.02;;
48871;SDS011;36154;51.674;7.824;2022-08-30T07:19:26;2.70;;;1.10;;
48871;SDS011;36154;51.674;7.824;2022-08-30T07:21:51;1.83;;;1.02;;
48871;SDS011;36154;51.674;7.824;2022-08-30T07:24:17;1.52;;;1.00;;
48871;SDS011;36154;51.674;7.824;2022-08-30T07:26:45;1.05;;;0.95;;
48871;SDS011;36154;51.674;7.824;2022-08-30T07:29:14;0.70;;;0.70;;
48871;SDS011;36154;51.674;7.824;2022-08-30T07:31:40;2.00;;;1.10;;
48871;SDS011;36154;51.674;7.824;2022-08-30T07:34:06;2.20;;;0.70;;
48871;SDS011;36154;51.674;7.824;2022-08-30T07:36:33;1.60;;;0.90;;
48871;SDS011;36154;51.674;7.824;2022-08-30T07:39:00;2.38;;;1.00;;
48871;SDS011;36154;51.674;7.824;2022-08-30T07:41:27;1.42;;;1.00;;
48871;SDS011;36154;51.674;7.824;2022-08-30T07:43:54;1.58;;;0.85;;
48871;SDS011;36154;51.674;7.824;2022-08-30T07:46:20;3.28;;;1.00;;
48871;SDS011;36154;51.674;7.824;2022-08-30T07:48:46;1.08;;;0.70;;
48871;SDS011;36154;51.674;7.824;2022-08-30T07:51:13;1.63;;;0.95;;
48871;SDS011;36154;51.674;7.824;2022-08-30T07:53:40;2.20;;;0.80;;
48871;SDS011;36154;51.674;7.824;2022-08-30T07:56:06;1.50;;;0.77;;
48871;SDS011;36154;51.674;7.824;2022-08-30T07:58:31;1.35;;;0.77;;
48871;SDS011;36154;51.674;7.824;2022-08-30T08:00:57;2.38;;;0.70;;
48871;SDS011;36154;51.674;7.824;2022-08-30T08:03:27;1.23;;;1.00;;
48871;SDS011;36154;51.674;7.824;2022-08-30T08:05:53;2.97;;;0.80;;
48871;SDS011;36154;51.674;7.824;2022-08-30T08:08:19;0.68;;;0.68;;
48871;SDS011;36154;51.674;7.824;2022-08-30T08:10:45;0.70;;;0.57;;
48871;SDS011;36154;51.674;7.824;2022-08-30T08:13:11;1.92;;;0.90;;
48871;SDS011;36154;51.674;7.824;2022-08-30T08:15:36;1.60;;;0.95;;
48871;SDS011;36154;51.674;7.824;2022-08-30T08:18:03;2.30;;;0.65;;
48871;SDS011;36154;51.674;7.824;2022-08-30T08:20:29;1.77;;;0.60;;
48871;SDS011;36154;51.674;7.824;2022-08-30T08:22:54;1.10;;;0.85;;
48871;SDS011;36154;51.674;7.824;2022-08-30T08:25:20;2.00;;;0.60;;
48871;SDS011;36154;51.674;7.824;2022-08-30T08:27:46;2.25;;;0.68;;
48871;SDS011;36154;51.674;7.824;2022-08-30T08:30:14;1.67;;;0.70;;
48871;SDS011;36154;51.674;7.824;2022-08-30T08:32:40;2.22;;;0.60;;
48871;SDS011;36154;51.674;7.824;2022-08-30T08:35:05;1.00;;;0.60;;
48871;SDS011;36154;51.674;7.824;2022-08-30T08:37:31;2.60;;;1.00;;
48871;SDS011;36154;51.674;7.824;2022-08-30T08:39:56;1.00;;;0.80;;
48871;SDS011;36154;51.674;7.824;2022-08-30T08:42:29;2.08;;;0.80;;
48871;SDS011;36154;51.674;7.824;2022-08-30T08:45:12;2.15;;;0.70;;
48871;SDS011;36154;51.674;7.824;2022-08-30T08:47:56;2.92;;;1.00;;
48871;SDS011;36154;51.674;7.824;2022-08-30T08:50:26;5.57;;;0.70;;
48871;SDS011;36154;51.674;7.824;2022-08-30T08:55:49;1.77;;;0.82;;
48871;SDS011;36154;51.674;7.824;2022-08-30T08:58:26;1.40;;;0.70;;
48871;SDS011;36154;51.674;7.824;2022-08-30T09:00:55;2.75;;;0.60;;
48871;SDS011;36154;51.674;7.824;2022-08-30T09:03:24;0.52;;;0.52;;
48871;SDS011;36154;51.674;7.824;2022-08-30T09:05:52;0.90;;;0.90;;
48871;SDS011;36154;51.674;7.824;2022-08-30T09:08:18;2.15;;;0.90;;
48871;SDS011;36154;51.674;7.824;2022-08-30T09:11:20;1.85;;;0.70;;
48871;SDS011;36154;51.674;7.824;2022-08-30T09:13:42;1.70;;;0.93;;
48871;SDS011;36154;51.674;7.824;2022-08-30T09:16:07;1.40;;;1.30;;
48871;SDS011;36154;51.674;7.824;2022-08-30T09:21:12;3.03;;;1.10;;
48871;SDS011;36154;51.674;7.824;2022-08-30T09:23:48;2.80;;;1.10;;
48871;SDS011;36154;51.674;7.824;2022-08-30T09:26:28;1.67;;;1.38;;
48871;SDS011;36154;51.674;7.824;2022-08-30T09:28:56;2.83;;;0.90;;
48871;SDS011;36154;51.674;7.824;2022-08-30T09:31:28;1.25;;;1.17;;
48871;SDS011;36154;51.674;7.824;2022-08-30T09:34:14;1.88;;;1.58;;
48871;SDS011;36154;51.674;7.824;2022-08-30T09:39:25;1.85;;;1.20;;
48871;SDS011;36154;51.674;7.824;2022-08-30T09:41:53;0.95;;;0.90;;
48871;SDS011;36154;51.674;7.824;2022-08-30T09:44:36;1.40;;;1.25;;
48871;SDS011;36154;51.674;7.824;2022-08-30T09:47:02;3.38;;;1.10;;
48871;SDS011;36154;51.674;7.824;2022-08-30T09:49:35;1.48;;;1.38;;
48871;SDS011;36154;51.674;7.824;2022-08-30T09:54:52;3.03;;;1.55;;
48871;SDS011;36154;51.674;7.824;2022-08-30T09:57:37;1.05;;;0.98;;
48871;SDS011;36154;51.674;7.824;2022-08-30T10:00:16;2.13;;;1.40;;
48871;SDS011;36154;51.674;7.824;2022-08-30T10:16:50;5.25;;;2.60;;
48871;SDS011;36154;51.674;7.824;2022-08-30T10:19:39;4.32;;;2.50;;
48871;SDS011;36154;51.674;7.824;2022-08-30T10:24:42;2.97;;;1.70;;
48871;SDS011;36154;51.674;7.824;2022-08-30T10:27:15;1.95;;;1.80;;
48871;SDS011;36154;51.674;7.824;2022-08-30T10:29:48;2.13;;;1.92;;
48871;SDS011;36154;51.674;7.824;2022-08-30T10:34:56;2.38;;;1.65;;
48871;SDS011;36154;51.674;7.824;2022-08-30T10:37:33;3.15;;;2.08;;
48871;SDS011;36154;51.674;7.824;2022-08-30T10:40:11;3.00;;;1.77;;
48871;SDS011;36154;51.674;7.824;2022-08-30T10:43:00;4.35;;;2.30;;
48871;SDS011;36154;51.674;7.824;2022-08-30T10:45:32;3.25;;;1.83;;
48871;SDS011;36154;51.674;7.824;2022-08-30T10:48:07;3.78;;;2.35;;
48871;SDS011;36154;51.674;7.824;2022-08-30T10:50:42;4.22;;;2.25;;
48871;SDS011;36154;51.674;7.824;2022-08-30T10:53:13;3.13;;;1.88;;
48871;SDS011;36154;51.674;7.824;2022-08-30T10:56:00;1.70;;;1.60;;
48871;SDS011;36154;51.674;7.824;2022-08-30T10:58:29;1.70;;;1.60;;
48871;SDS011;36154;51.674;7.824;2022-08-30T11:01:01;4.20;;;2.15;;
48871;SDS011;36154;51.674;7.824;2022-08-30T11:14:27;7.82;;;2.00;;
48871;SDS011;36154;51.674;7.824;2022-08-30T11:16:54;1.80;;;1.55;;
48871;SDS011;36154;51.674;7.824;2022-08-30T11:19:23;1.70;;;1.60;;
48871;SDS011;36154;51.674;7.824;2022-08-30T11:22:07;2.75;;;1.60;;
48871;SDS011;36154;51.674;7.824;2022-08-30T11:27:38;2.25;;;1.40;;
48871;SDS011;36154;51.674;7.824;2022-08-30T11:35:45;1.42;;;1.33;;
48871;SDS011;36154;51.674;7.824;2022-08-30T11:38:59;2.28;;;1.30;;
48871;SDS011;36154;51.674;7.824;2022-08-30T11:41:28;2.80;;;1.58;;
48871;SDS011;36154;51.674;7.824;2022-08-30T11:43:55;1.25;;;1.20;;
48871;SDS011;36154;51.674;7.824;2022-08-30T11:46:38;1.73;;;1.23;;
48871;SDS011;36154;51.674;7.824;2022-08-30T11:54:23;2.40;;;1.40;;
48871;SDS011;36154;51.674;7.824;2022-08-30T12:08:50;1.20;;;1.10;;
48871;SDS011;36154;51.674;7.824;2022-08-30T12:18:45;1.30;;;1.20;;
48871;SDS011;36154;51.674;7.824;2022-08-30T12:23:49;1.40;;;1.30;;
48871;SDS011;36154;51.674;7.824;2022-08-30T12:28:48;1.50;;;1.40;;
48871;SDS011;36154;51.674;7.824;2022-08-30T12:31:17;1.33;;;1.20;;
48871;SDS011;36154;51.674;7.824;2022-08-30T12:33:52;1.38;;;1.27;;
48871;SDS011;36154;51.674;7.824;2022-08-30T12:39:18;1.13;;;1.02;;
48871;SDS011;36154;51.674;7.824;2022-08-30T12:41:50;1.55;;;0.98;;
48871;SDS011;36154;51.674;7.824;2022-08-30T12:44:17;0.82;;;0.82;;
48871;SDS011;36154;51.674;7.824;2022-08-30T12:46:49;1.30;;;1.10;;
48871;SDS011;36154;51.674;7.824;2022-08-30T12:49:18;1.17;;;1.08;;
48871;SDS011;36154;51.674;7.824;2022-08-30T12:51:46;1.80;;;0.88;;
48871;SDS011;36154;51.674;7.824;2022-08-30T12:54:19;0.82;;;0.82;;
48871;SDS011;36154;51.674;7.824;2022-08-30T12:56:48;1.35;;;0.90;;
48871;SDS011;36154;51.674;7.824;2022-08-30T13:02:13;1.20;;;1.20;;
48871;SDS011;36154;51.674;7.824;2022-08-30T13:04:51;0.95;;;0.95;;
48871;SDS011;36154;51.674;7.824;2022-08-30T13:07:25;1.80;;;1.00;;
48871;SDS011;36154;51.674;7.824;2022-08-30T13:10:00;1.23;;;0.98;;
48871;SDS011;36154;51.674;7.824;2022-08-30T13:13:05;2.53;;;1.17;;
48871;SDS011;36154;51.674;7.824;2022-08-30T13:15:31;0.90;;;0.90;;
48871;SDS011;36154;51.674;7.824;2022-08-30T13:18:17;0.85;;;0.80;;
48871;SDS011;36154;51.674;7.824;2022-08-30T13:21:08;1.08;;;1.08;;
48871;SDS011;36154;51.674;7.824;2022-08-30T13:26:11;1.20;;;1.10;;
48871;SDS011;36154;51.674;7.824;2022-08-30T13:28:47;1.92;;;1.20;;
48871;SDS011;36154;51.674;7.824;2022-08-30T13:31:12;1.40;;;0.98;;
48871;SDS011;36154;51.674;7.824;2022-08-30T13:33:37;1.10;;;1.10;;
48871;SDS011;36154;51.674;7.824;2022-08-30T13:36:03;2.50;;;1.10;;
48871;SDS011;36154;51.674;7.824;2022-08-30T13:38:28;1.02;;;1.02;;
48871;SDS011;36154;51.674;7.824;2022-08-30T13:40:53;1.17;;;1.08;;
48871;SDS011;36154;51.674;7.824;2022-08-30T13:43:19;4.00;;;1.20;;
48871;SDS011;36154;51.674;7.824;2022-08-30T13:45:44;0.95;;;0.95;;
48871;SDS011;36154;51.674;7.824;2022-08-30T13:48:09;1.42;;;1.25;;
48871;SDS011;36154;51.674;7.824;2022-08-30T13:50:36;1.33;;;1.23;;
48871;SDS011;36154;51.674;7.824;2022-08-30T13:53:01;1.27;;;0.93;;
48871;SDS011;36154;51.674;7.824;2022-08-30T13:55:27;3.05;;;0.98;;
48871;SDS011;36154;51.674;7.824;2022-08-30T13:57:52;3.03;;;1.23;;
48871;SDS011;36154;51.674;7.824;2022-08-30T14:00:18;1.10;;;1.00;;
48871;SDS011;36154;51.674;7.824;2022-08-30T14:02:46;1.42;;;1.10;;
48871;SDS011;36154;51.674;7.824;2022-08-30T14:05:12;1.40;;;1.30;;
48871;SDS011;36154;51.674;7.824;2022-08-30T14:07:37;1.20;;;1.10;;
48871;SDS011;36154;51.674;7.824;2022-08-30T14:10:03;1.60;;;1.00;;
48871;SDS011;36154;51.674;7.824;2022-08-30T14:12:29;0.98;;;0.98;;
48871;SDS011;36154;51.674;7.824;2022-08-30T14:14:54;4.22;;;1.20;;
48871;SDS011;36154;51.674;7.824;2022-08-30T14:17:20;1.15;;;0.82;;
48871;SDS011;36154;51.674;7.824;2022-08-30T14:19:49;3.28;;;1.65;;
48871;SDS011;36154;51.674;7.824;2022-08-30T14:22:14;2.25;;;1.40;;
48871;SDS011;36154;51.674;7.824;2022-08-30T14:24:43;8.82;;;1.50;;
48871;SDS011;36154;51.674;7.824;2022-08-30T14:27:08;4.45;;;1.73;;
48871;SDS011;36154;51.674;7.824;2022-08-30T14:29:34;1.63;;;1.52;;
48871;SDS011;36154;51.674;7.824;2022-08-30T14:32:00;7.00;;;1.60;;
48871;SDS011;36154;51.674;7.824;2022-08-30T14:34:25;4.07;;;1.35;;
48871;SDS011;36154;51.674;7.824;2022-08-30T14:36:50;2.08;;;1.15;;
48871;SDS011;36154;51.674;7.824;2022-08-30T14:39:16;1.35;;;1.20;;
48871;SDS011;36154;51.674;7.824;2022-08-30T14:41:44;2.03;;;1.17;;
48871;SDS011;36154;51.674;7.824;2022-08-30T14:44:12;1.88;;;0.90;;
48871;SDS011;36154;51.674;7.824;2022-08-30T14:46:39;2.05;;;1.02;;
48871;SDS011;36154;51.674;7.824;2022-08-30T14:49:05;2.75;;;1.05;;
48871;SDS011;36154;51.674;7.824;2022-08-30T14:51:30;1.65;;;1.00;;
48871;SDS011;36154;51.674;7.824;2022-08-30T14:53:55;2.40;;;0.75;;
48871;SDS011;36154;51.674;7.824;2022-08-30T14:56:21;2.05;;;0.60;;
48871;SDS011;36154;51.674;7.824;2022-08-30T14:58:48;1.00;;;0.65;;
48871;SDS011;36154;51.674;7.824;2022-08-30T15:01:14;2.47;;;0.90;;
48871;SDS011;36154;51.674;7.824;2022-08-30T15:03:39;0.85;;;0.68;;
48871;SDS011;36154;51.674;7.824;2022-08-30T15:06:05;0.70;;;0.70;;
48871;SDS011;36154;51.674;7.824;2022-08-30T15:08:31;1.00;;;0.70;;
48871;SDS011;36154;51.674;7.824;2022-08-30T15:10:58;1.00;;;0.90;;
48871;SDS011;36154;51.674;7.824;2022-08-30T15:13:25;1.20;;;0.80;;
48871;SDS011;36154;51.674;7.824;2022-08-30T15:15:50;0.63;;;0.63;;
48871;SDS011;36154;51.674;7.824;2022-08-30T15:18:16;1.95;;;0.88;;
48871;SDS011;36154;51.674;7.824;2022-08-30T15:20:45;0.70;;;0.70;;
48871;SDS011;36154;51.674;7.824;2022-08-30T15:23:11;0.80;;;0.80;;
48871;SDS011;36154;51.674;7.824;2022-08-30T15:25:36;0.70;;;0.70;;
48871;SDS011;36154;51.674;7.824;2022-08-30T15:28:02;0.57;;;0.57;;
48871;SDS011;36154;51.674;7.824;2022-08-30T15:30:27;0.57;;;0.57;;
48871;SDS011;36154;51.674;7.824;2022-08-30T15:32:52;0.55;;;0.55;;
48871;SDS011;36154;51.674;7.824;2022-08-30T15:35:17;0.60;;;0.60;;
48871;SDS011;36154;51.674;7.824;2022-08-30T15:37:43;0.60;;;0.60;;
48871;SDS011;36154;51.674;7.824;2022-08-30T15:40:08;0.60;;;0.60;;
48871;SDS011;36154;51.674;7.824;2022-08-30T15:42:34;1.52;;;0.88;;
48871;SDS011;36154;51.674;7.824;2022-08-30T15:44:59;1.23;;;0.60;;
48871;SDS011;36154;51.674;7.824;2022-08-30T15:47:24;1.08;;;0.70;;
48871;SDS011;36154;51.674;7.824;2022-08-30T15:49:54;0.77;;;0.70;;
48871;SDS011;36154;51.674;7.824;2022-08-30T15:52:20;1.35;;;0.75;;
48871;SDS011;36154;51.674;7.824;2022-08-30T15:54:45;0.93;;;0.77;;
48871;SDS011;36154;51.674;7.824;2022-08-30T15:57:11;2.05;;;0.63;;
48871;SDS011;36154;51.674;7.824;2022-08-30T15:59:36;1.43;;;0.60;;
48871;SDS011;36154;51.674;7.824;2022-08-30T16:02:01;0.98;;;0.80;;
48871;SDS011;36154;51.674;7.824;2022-08-30T16:04:26;1.33;;;0.77;;
48871;SDS011;36154;51.674;7.824;2022-08-30T16:06:52;1.73;;;0.77;;
48871;SDS011;36154;51.674;7.824;2022-08-30T16:09:18;1.00;;;0.90;;
48871;SDS011;36154;51.674;7.824;2022-08-30T16:11:43;1.08;;;0.80;;
48871;SDS011;36154;51.674;7.824;2022-08-30T16:14:08;0.95;;;0.80;;
48871;SDS011;36154;51.674;7.824;2022-08-30T16:16:34;1.75;;;1.10;;
48871;SDS011;36154;51.674;7.824;2022-08-30T16:19:01;2.75;;;1.23;;
48871;SDS011;36154;51.674;7.824;2022-08-30T16:21:28;2.85;;;0.95;;